sensor_id;sensor_type;location;lat;lon;timestamp;pressure;altitude;pressure_sealevel;temperature
68743;BMP180;55725;42.758;26.702;2023-02-28T00:00:11;99989.00;;;9.00
68743;BMP180;55725;42.758;26.702;2023-02-28T00:01:52;99995.00;;;8.90
68743;BMP180;55725;42.758;26.702;2023-02-28T00:03:32;99984.00;;;9.00
68743;BMP180;55725;42.758;26.702;2023-02-28T00:05:16;99989.00;;;8.70
68743;BMP180;55725;42.758;26.702;2023-02-28T00:06:56;99996.00;;;8.70
68743;BMP180;55725;42.758;26.702;2023-02-28T00:08:37;100005.00;;;8.70
68743;BMP180;55725;42.758;26.702;2023-02-28T00:10:18;100027.00;;;8.70
68743;BMP180;55725;42.758;26.702;2023-02-28T00:12:00;100019.00;;;9.00
68743;BMP180;55725;42.758;26.702;2023-02-28T00:13:50;100028.00;;;8.90
68743;BMP180;55725;42.758;26.702;2023-02-28T00:15:30;100017.00;;;8.90
68743;BMP180;55725;42.758;26.702;2023-02-28T00:17:11;100012.00;;;9.00
68743;BMP180;55725;42.758;26.702;2023-02-28T00:18:51;100010.00;;;8.30
68743;BMP180;55725;42.758;26.702;2023-02-28T00:20:31;100002.00;;;8.50
68743;BMP180;55725;42.758;26.702;2023-02-28T00:22:12;100008.00;;;8.00
68743;BMP180;55725;42.758;26.702;2023-02-28T00:23:52;100015.00;;;8.00
68743;BMP180;55725;42.758;26.702;2023-02-28T00:25:33;100015.00;;;8.10
68743;BMP180;55725;42.758;26.702;2023-02-28T00:27:13;100025.00;;;8.00
68743;BMP180;55725;42.758;26.702;2023-02-28T00:28:54;100026.00;;;8.00
68743;BMP180;55725;42.758;26.702;2023-02-28T00:30:34;100032.00;;;8.40
68743;BMP180;55725;42.758;26.702;2023-02-28T00:32:14;100029.00;;;8.40
68743;BMP180;55725;42.758;26.702;2023-02-28T00:33:55;100021.00;;;8.30
68743;BMP180;55725;42.758;26.702;2023-02-28T00:35:35;100018.00;;;8.10
68743;BMP180;55725;42.758;26.702;2023-02-28T00:37:15;100017.00;;;7.80
68743;BMP180;55725;42.758;26.702;2023-02-28T00:38:56;100013.00;;;7.70
68743;BMP180;55725;42.758;26.702;2023-02-28T00:40:36;100018.00;;;7.80
68743;BMP180;55725;42.758;26.702;2023-02-28T00:42:16;100011.00;;;7.80
68743;BMP180;55725;42.758;26.702;2023-02-28T00:43:56;100017.00;;;7.70
68743;BMP180;55725;42.758;26.702;2023-02-28T00:45:37;100016.00;;;8.00
68743;BMP180;55725;42.758;26.702;2023-02-28T00:47:17;100026.00;;;7.90
68743;BMP180;55725;42.758;26.702;2023-02-28T00:48:57;100036.00;;;8.20
68743;BMP180;55725;42.758;26.702;2023-02-28T00:50:38;100021.00;;;8.10
68743;BMP180;55725;42.758;26.702;2023-02-28T00:52:18;100023.00;;;8.40
68743;BMP180;55725;42.758;26.702;2023-02-28T00:53:58;100029.00;;;8.30
68743;BMP180;55725;42.758;26.702;2023-02-28T00:55:38;100034.00;;;7.90
68743;BMP180;55725;42.758;26.702;2023-02-28T00:57:19;100020.00;;;8.00
68743;BMP180;55725;42.758;26.702;2023-02-28T00:58:59;100019.00;;;8.20
68743;BMP180;55725;42.758;26.702;2023-02-28T01:00:39;100022.00;;;8.10
68743;BMP180;55725;42.758;26.702;2023-02-28T01:02:20;100030.00;;;7.90
68743;BMP180;55725;42.758;26.702;2023-02-28T01:04:01;100024.00;;;8.20
68743;BMP180;55725;42.758;26.702;2023-02-28T01:05:41;100026.00;;;7.90
68743;BMP180;55725;42.758;26.702;2023-02-28T01:07:22;100015.00;;;7.60
68743;BMP180;55725;42.758;26.702;2023-02-28T01:09:03;100007.00;;;8.00
68743;BMP180;55725;42.758;26.702;2023-02-28T01:10:43;99996.00;;;7.90
68743;BMP180;55725;42.758;26.702;2023-02-28T01:12:24;100008.00;;;7.80
68743;BMP180;55725;42.758;26.702;2023-02-28T01:14:04;100008.00;;;7.70
68743;BMP180;55725;42.758;26.702;2023-02-28T01:15:51;99996.00;;;7.90
68743;BMP180;55725;42.758;26.702;2023-02-28T01:17:32;100017.00;;;7.90
68743;BMP180;55725;42.758;26.702;2023-02-28T01:19:12;100010.00;;;7.90
68743;BMP180;55725;42.758;26.702;2023-02-28T01:20:52;100010.00;;;7.80
68743;BMP180;55725;42.758;26.702;2023-02-28T01:22:34;100015.00;;;8.20
68743;BMP180;55725;42.758;26.702;2023-02-28T01:24:14;100028.00;;;8.40
68743;BMP180;55725;42.758;26.702;2023-02-28T01:25:54;100037.00;;;8.40
68743;BMP180;55725;42.758;26.702;2023-02-28T01:27:35;100040.00;;;8.20
68743;BMP180;55725;42.758;26.702;2023-02-28T01:29:15;100050.00;;;8.10
68743;BMP180;55725;42.758;26.702;2023-02-28T01:30:56;100049.00;;;8.20
68743;BMP180;55725;42.758;26.702;2023-02-28T01:32:36;100058.00;;;8.50
68743;BMP180;55725;42.758;26.702;2023-02-28T01:34:17;100055.00;;;8.40
68743;BMP180;55725;42.758;26.702;2023-02-28T01:35:59;100058.00;;;8.50
68743;BMP180;55725;42.758;26.702;2023-02-28T01:37:40;100063.00;;;8.30
68743;BMP180;55725;42.758;26.702;2023-02-28T01:39:20;100067.00;;;8.10
68743;BMP180;55725;42.758;26.702;2023-02-28T01:41:00;100058.00;;;8.20
68743;BMP180;55725;42.758;26.702;2023-02-28T01:42:41;100060.00;;;7.90
68743;BMP180;55725;42.758;26.702;2023-02-28T01:46:20;100070.00;;;7.90
68743;BMP180;55725;42.758;26.702;2023-02-28T01:48:02;100062.00;;;7.70
68743;BMP180;55725;42.758;26.702;2023-02-28T01:49:43;100051.00;;;7.60
68743;BMP180;55725;42.758;26.702;2023-02-28T01:51:26;100059.00;;;7.60
68743;BMP180;55725;42.758;26.702;2023-02-28T01:53:08;100062.00;;;7.70
68743;BMP180;55725;42.758;26.702;2023-02-28T01:54:51;100070.00;;;7.70
68743;BMP180;55725;42.758;26.702;2023-02-28T01:56:33;100075.00;;;7.60
68743;BMP180;55725;42.758;26.702;2023-02-28T01:58:14;100075.00;;;7.60
68743;BMP180;55725;42.758;26.702;2023-02-28T02:00:00;100077.00;;;7.40
68743;BMP180;55725;42.758;26.702;2023-02-28T02:01:41;100082.00;;;7.60
68743;BMP180;55725;42.758;26.702;2023-02-28T02:03:21;100069.00;;;7.20
68743;BMP180;55725;42.758;26.702;2023-02-28T02:05:06;100067.00;;;7.50
68743;BMP180;55725;42.758;26.702;2023-02-28T02:06:46;100065.00;;;7.40
68743;BMP180;55725;42.758;26.702;2023-02-28T02:08:28;100063.00;;;7.10
68743;BMP180;55725;42.758;26.702;2023-02-28T02:11:51;100055.00;;;7.10
68743;BMP180;55725;42.758;26.702;2023-02-28T02:13:53;100061.00;;;7.10
68743;BMP180;55725;42.758;26.702;2023-02-28T02:17:35;100063.00;;;7.00
68743;BMP180;55725;42.758;26.702;2023-02-28T02:31:48;100080.00;;;6.90
68743;BMP180;55725;42.758;26.702;2023-02-28T02:40:57;100073.00;;;7.60
68743;BMP180;55725;42.758;26.702;2023-02-28T02:44:46;100069.00;;;7.70
68743;BMP180;55725;42.758;26.702;2023-02-28T02:46:33;100079.00;;;7.70
68743;BMP180;55725;42.758;26.702;2023-02-28T02:48:15;100094.00;;;7.70
68743;BMP180;55725;42.758;26.702;2023-02-28T02:49:57;100091.00;;;7.90
68743;BMP180;55725;42.758;26.702;2023-02-28T02:51:40;100090.00;;;7.80
68743;BMP180;55725;42.758;26.702;2023-02-28T02:53:23;100078.00;;;7.60
68743;BMP180;55725;42.758;26.702;2023-02-28T02:55:04;100078.00;;;7.60
68743;BMP180;55725;42.758;26.702;2023-02-28T02:56:46;100076.00;;;7.50
68743;BMP180;55725;42.758;26.702;2023-02-28T02:58:31;100075.00;;;7.50
68743;BMP180;55725;42.758;26.702;2023-02-28T03:00:14;100074.00;;;7.50
68743;BMP180;55725;42.758;26.702;2023-02-28T03:01:57;100069.00;;;7.10
68743;BMP180;55725;42.758;26.702;2023-02-28T03:03:38;100073.00;;;6.90
68743;BMP180;55725;42.758;26.702;2023-02-28T03:05:20;100075.00;;;7.20
68743;BMP180;55725;42.758;26.702;2023-02-28T03:07:01;100069.00;;;7.50
68743;BMP180;55725;42.758;26.702;2023-02-28T03:08:41;100062.00;;;7.30
68743;BMP180;55725;42.758;26.702;2023-02-28T03:10:26;100068.00;;;6.90
68743;BMP180;55725;42.758;26.702;2023-02-28T03:12:09;100080.00;;;6.80
68743;BMP180;55725;42.758;26.702;2023-02-28T03:15:32;100086.00;;;6.90
68743;BMP180;55725;42.758;26.702;2023-02-28T03:26:12;100091.00;;;6.70
68743;BMP180;55725;42.758;26.702;2023-02-28T03:29:41;100083.00;;;6.80
68743;BMP180;55725;42.758;26.702;2023-02-28T03:31:34;100085.00;;;6.70
68743;BMP180;55725;42.758;26.702;2023-02-28T03:33:16;100097.00;;;6.70
68743;BMP180;55725;42.758;26.702;2023-02-28T03:35:02;100100.00;;;6.80
68743;BMP180;55725;42.758;26.702;2023-02-28T03:36:47;100093.00;;;6.70
68743;BMP180;55725;42.758;26.702;2023-02-28T03:38:33;100087.00;;;6.70
68743;BMP180;55725;42.758;26.702;2023-02-28T03:40:21;100086.00;;;6.70
68743;BMP180;55725;42.758;26.702;2023-02-28T03:42:06;100085.00;;;6.60
68743;BMP180;55725;42.758;26.702;2023-02-28T03:43:50;100094.00;;;6.70
68743;BMP180;55725;42.758;26.702;2023-02-28T03:45:33;100099.00;;;6.60
68743;BMP180;55725;42.758;26.702;2023-02-28T03:47:26;100104.00;;;6.70
68743;BMP180;55725;42.758;26.702;2023-02-28T03:49:17;100113.00;;;6.60
68743;BMP180;55725;42.758;26.702;2023-02-28T03:50:58;100120.00;;;6.80
68743;BMP180;55725;42.758;26.702;2023-02-28T03:52:44;100114.00;;;6.60
68743;BMP180;55725;42.758;26.702;2023-02-28T03:54:27;100112.00;;;6.70
68743;BMP180;55725;42.758;26.702;2023-02-28T03:56:13;100105.00;;;6.60
68743;BMP180;55725;42.758;26.702;2023-02-28T03:57:59;100093.00;;;6.60
68743;BMP180;55725;42.758;26.702;2023-02-28T03:59:53;100093.00;;;6.50
68743;BMP180;55725;42.758;26.702;2023-02-28T04:01:45;100085.00;;;6.50
68743;BMP180;55725;42.758;26.702;2023-02-28T04:03:26;100084.00;;;6.50
68743;BMP180;55725;42.758;26.702;2023-02-28T04:05:07;100099.00;;;6.60
68743;BMP180;55725;42.758;26.702;2023-02-28T04:06:49;100090.00;;;6.50
68743;BMP180;55725;42.758;26.702;2023-02-28T04:08:29;100084.00;;;6.50
68743;BMP180;55725;42.758;26.702;2023-02-28T04:10:10;100083.00;;;6.50
68743;BMP180;55725;42.758;26.702;2023-02-28T04:11:51;100090.00;;;6.60
68743;BMP180;55725;42.758;26.702;2023-02-28T04:13:32;100085.00;;;6.50
68743;BMP180;55725;42.758;26.702;2023-02-28T04:15:12;100093.00;;;6.50
68743;BMP180;55725;42.758;26.702;2023-02-28T04:16:53;100091.00;;;6.60
68743;BMP180;55725;42.758;26.702;2023-02-28T04:18:33;100091.00;;;6.60
68743;BMP180;55725;42.758;26.702;2023-02-28T04:20:13;100106.00;;;6.70
68743;BMP180;55725;42.758;26.702;2023-02-28T04:21:53;100102.00;;;6.60
68743;BMP180;55725;42.758;26.702;2023-02-28T04:23:34;100104.00;;;6.60
68743;BMP180;55725;42.758;26.702;2023-02-28T04:25:14;100104.00;;;6.50
68743;BMP180;55725;42.758;26.702;2023-02-28T04:26:55;100121.00;;;6.60
68743;BMP180;55725;42.758;26.702;2023-02-28T04:28:36;100113.00;;;6.60
68743;BMP180;55725;42.758;26.702;2023-02-28T04:30:17;100114.00;;;6.70
68743;BMP180;55725;42.758;26.702;2023-02-28T04:31:57;100118.00;;;6.70
68743;BMP180;55725;42.758;26.702;2023-02-28T04:33:38;100119.00;;;6.60
68743;BMP180;55725;42.758;26.702;2023-02-28T04:35:19;100115.00;;;6.70
68743;BMP180;55725;42.758;26.702;2023-02-28T04:36:59;100121.00;;;6.70
68743;BMP180;55725;42.758;26.702;2023-02-28T04:38:40;100110.00;;;6.70
68743;BMP180;55725;42.758;26.702;2023-02-28T04:40:20;100118.00;;;6.60
68743;BMP180;55725;42.758;26.702;2023-02-28T04:42:00;100125.00;;;6.70
68743;BMP180;55725;42.758;26.702;2023-02-28T04:43:41;100125.00;;;6.90
68743;BMP180;55725;42.758;26.702;2023-02-28T04:45:21;100126.00;;;6.80
68743;BMP180;55725;42.758;26.702;2023-02-28T04:47:01;100117.00;;;6.90
68743;BMP180;55725;42.758;26.702;2023-02-28T04:48:42;100124.00;;;6.70
68743;BMP180;55725;42.758;26.702;2023-02-28T04:50:23;100120.00;;;6.80
68743;BMP180;55725;42.758;26.702;2023-02-28T04:52:04;100126.00;;;6.70
68743;BMP180;55725;42.758;26.702;2023-02-28T04:53:44;100123.00;;;6.70
68743;BMP180;55725;42.758;26.702;2023-02-28T04:55:24;100133.00;;;6.70
68743;BMP180;55725;42.758;26.702;2023-02-28T04:57:05;100133.00;;;6.80
68743;BMP180;55725;42.758;26.702;2023-02-28T04:58:46;100140.00;;;7.10
68743;BMP180;55725;42.758;26.702;2023-02-28T05:00:26;100135.00;;;6.70
68743;BMP180;55725;42.758;26.702;2023-02-28T05:02:06;100125.00;;;6.60
68743;BMP180;55725;42.758;26.702;2023-02-28T05:03:47;100128.00;;;6.70
68743;BMP180;55725;42.758;26.702;2023-02-28T05:05:27;100131.00;;;6.80
68743;BMP180;55725;42.758;26.702;2023-02-28T05:07:08;100137.00;;;6.90
68743;BMP180;55725;42.758;26.702;2023-02-28T05:08:48;100145.00;;;6.80
68743;BMP180;55725;42.758;26.702;2023-02-28T05:10:28;100139.00;;;6.80
68743;BMP180;55725;42.758;26.702;2023-02-28T05:12:09;100147.00;;;6.80
68743;BMP180;55725;42.758;26.702;2023-02-28T05:13:50;100143.00;;;7.00
68743;BMP180;55725;42.758;26.702;2023-02-28T05:15:30;100149.00;;;6.70
68743;BMP180;55725;42.758;26.702;2023-02-28T05:17:11;100153.00;;;7.00
68743;BMP180;55725;42.758;26.702;2023-02-28T05:18:51;100155.00;;;7.00
68743;BMP180;55725;42.758;26.702;2023-02-28T05:20:33;100156.00;;;7.00
68743;BMP180;55725;42.758;26.702;2023-02-28T05:22:14;100157.00;;;6.80
68743;BMP180;55725;42.758;26.702;2023-02-28T05:23:57;100168.00;;;7.30
68743;BMP180;55725;42.758;26.702;2023-02-28T05:25:38;100166.00;;;7.20
68743;BMP180;55725;42.758;26.702;2023-02-28T05:27:18;100170.00;;;7.00
68743;BMP180;55725;42.758;26.702;2023-02-28T05:28:58;100168.00;;;6.70
68743;BMP180;55725;42.758;26.702;2023-02-28T05:30:39;100173.00;;;7.00
68743;BMP180;55725;42.758;26.702;2023-02-28T05:32:19;100172.00;;;7.00
68743;BMP180;55725;42.758;26.702;2023-02-28T05:33:59;100173.00;;;6.80
68743;BMP180;55725;42.758;26.702;2023-02-28T05:35:40;100183.00;;;7.00
68743;BMP180;55725;42.758;26.702;2023-02-28T05:37:20;100170.00;;;7.20
68743;BMP180;55725;42.758;26.702;2023-02-28T05:39:01;100171.00;;;7.00
68743;BMP180;55725;42.758;26.702;2023-02-28T05:40:41;100172.00;;;6.80
68743;BMP180;55725;42.758;26.702;2023-02-28T05:42:21;100168.00;;;6.90
68743;BMP180;55725;42.758;26.702;2023-02-28T05:44:02;100172.00;;;7.00
68743;BMP180;55725;42.758;26.702;2023-02-28T05:45:42;100185.00;;;6.80
68743;BMP180;55725;42.758;26.702;2023-02-28T05:47:22;100184.00;;;6.70
68743;BMP180;55725;42.758;26.702;2023-02-28T05:49:03;100180.00;;;6.90
68743;BMP180;55725;42.758;26.702;2023-02-28T05:50:43;100189.00;;;6.80
68743;BMP180;55725;42.758;26.702;2023-02-28T05:52:26;100198.00;;;6.80
68743;BMP180;55725;42.758;26.702;2023-02-28T05:54:06;100193.00;;;6.90
68743;BMP180;55725;42.758;26.702;2023-02-28T05:55:47;100205.00;;;6.80
68743;BMP180;55725;42.758;26.702;2023-02-28T05:57:27;100203.00;;;6.80
68743;BMP180;55725;42.758;26.702;2023-02-28T05:59:07;100202.00;;;7.10
68743;BMP180;55725;42.758;26.702;2023-02-28T06:00:48;100203.00;;;7.30
68743;BMP180;55725;42.758;26.702;2023-02-28T06:02:29;100203.00;;;6.80
68743;BMP180;55725;42.758;26.702;2023-02-28T06:04:09;100207.00;;;6.80
68743;BMP180;55725;42.758;26.702;2023-02-28T06:05:50;100210.00;;;6.90
68743;BMP180;55725;42.758;26.702;2023-02-28T06:07:31;100212.00;;;7.10
68743;BMP180;55725;42.758;26.702;2023-02-28T06:09:11;100210.00;;;7.00
68743;BMP180;55725;42.758;26.702;2023-02-28T06:10:51;100207.00;;;7.10
68743;BMP180;55725;42.758;26.702;2023-02-28T06:12:32;100207.00;;;6.90
68743;BMP180;55725;42.758;26.702;2023-02-28T06:14:15;100211.00;;;7.20
68743;BMP180;55725;42.758;26.702;2023-02-28T06:15:56;100211.00;;;7.00
68743;BMP180;55725;42.758;26.702;2023-02-28T06:17:43;100203.00;;;7.00
68743;BMP180;55725;42.758;26.702;2023-02-28T06:19:24;100202.00;;;7.00
68743;BMP180;55725;42.758;26.702;2023-02-28T06:21:05;100208.00;;;7.10
68743;BMP180;55725;42.758;26.702;2023-02-28T06:22:45;100212.00;;;7.00
68743;BMP180;55725;42.758;26.702;2023-02-28T06:24:26;100213.00;;;7.10
68743;BMP180;55725;42.758;26.702;2023-02-28T06:26:07;100206.00;;;7.20
68743;BMP180;55725;42.758;26.702;2023-02-28T06:27:48;100201.00;;;7.00
68743;BMP180;55725;42.758;26.702;2023-02-28T06:29:29;100207.00;;;7.00
68743;BMP180;55725;42.758;26.702;2023-02-28T06:31:10;100215.00;;;7.10
68743;BMP180;55725;42.758;26.702;2023-02-28T06:32:51;100217.00;;;7.50
68743;BMP180;55725;42.758;26.702;2023-02-28T06:34:32;100205.00;;;7.50
68743;BMP180;55725;42.758;26.702;2023-02-28T06:36:14;100213.00;;;7.50
68743;BMP180;55725;42.758;26.702;2023-02-28T06:37:55;100210.00;;;7.30
68743;BMP180;55725;42.758;26.702;2023-02-28T06:39:35;100207.00;;;7.20
68743;BMP180;55725;42.758;26.702;2023-02-28T06:41:15;100207.00;;;7.20
68743;BMP180;55725;42.758;26.702;2023-02-28T06:42:55;100205.00;;;7.60
68743;BMP180;55725;42.758;26.702;2023-02-28T06:44:36;100199.00;;;7.50
68743;BMP180;55725;42.758;26.702;2023-02-28T06:46:16;100203.00;;;7.60
68743;BMP180;55725;42.758;26.702;2023-02-28T06:47:57;100189.00;;;7.50
68743;BMP180;55725;42.758;26.702;2023-02-28T06:49:38;100201.00;;;7.50
68743;BMP180;55725;42.758;26.702;2023-02-28T06:51:19;100189.00;;;7.70
68743;BMP180;55725;42.758;26.702;2023-02-28T06:53:02;100204.00;;;7.90
68743;BMP180;55725;42.758;26.702;2023-02-28T06:54:42;100199.00;;;7.90
68743;BMP180;55725;42.758;26.702;2023-02-28T06:56:22;100196.00;;;7.60
68743;BMP180;55725;42.758;26.702;2023-02-28T06:58:03;100189.00;;;8.00
68743;BMP180;55725;42.758;26.702;2023-02-28T06:59:53;100189.00;;;7.60
68743;BMP180;55725;42.758;26.702;2023-02-28T07:01:33;100184.00;;;7.80
68743;BMP180;55725;42.758;26.702;2023-02-28T07:03:14;100199.00;;;8.00
68743;BMP180;55725;42.758;26.702;2023-02-28T07:04:55;100202.00;;;8.10
68743;BMP180;55725;42.758;26.702;2023-02-28T07:06:35;100194.00;;;7.70
68743;BMP180;55725;42.758;26.702;2023-02-28T07:08:16;100194.00;;;7.50
68743;BMP180;55725;42.758;26.702;2023-02-28T07:09:56;100188.00;;;7.60
68743;BMP180;55725;42.758;26.702;2023-02-28T07:11:36;100192.00;;;7.70
68743;BMP180;55725;42.758;26.702;2023-02-28T07:13:17;100198.00;;;7.90
68743;BMP180;55725;42.758;26.702;2023-02-28T07:14:57;100196.00;;;7.80
68743;BMP180;55725;42.758;26.702;2023-02-28T07:16:37;100197.00;;;7.80
68743;BMP180;55725;42.758;26.702;2023-02-28T07:18:17;100189.00;;;7.70
68743;BMP180;55725;42.758;26.702;2023-02-28T07:19:59;100191.00;;;8.00
68743;BMP180;55725;42.758;26.702;2023-02-28T07:21:39;100198.00;;;7.90
68743;BMP180;55725;42.758;26.702;2023-02-28T07:23:20;100195.00;;;7.90
68743;BMP180;55725;42.758;26.702;2023-02-28T07:25:00;100194.00;;;8.00
68743;BMP180;55725;42.758;26.702;2023-02-28T07:26:40;100192.00;;;7.80
68743;BMP180;55725;42.758;26.702;2023-02-28T07:28:21;100203.00;;;7.90
68743;BMP180;55725;42.758;26.702;2023-02-28T07:30:01;100203.00;;;7.50
68743;BMP180;55725;42.758;26.702;2023-02-28T07:31:43;100208.00;;;8.20
68743;BMP180;55725;42.758;26.702;2023-02-28T07:33:23;100206.00;;;8.00
68743;BMP180;55725;42.758;26.702;2023-02-28T07:35:04;100202.00;;;8.00
68743;BMP180;55725;42.758;26.702;2023-02-28T07:36:44;100210.00;;;8.10
68743;BMP180;55725;42.758;26.702;2023-02-28T07:38:25;100204.00;;;8.20
68743;BMP180;55725;42.758;26.702;2023-02-28T07:40:06;100214.00;;;8.20
68743;BMP180;55725;42.758;26.702;2023-02-28T07:41:48;100212.00;;;8.30
68743;BMP180;55725;42.758;26.702;2023-02-28T07:43:28;100198.00;;;8.30
68743;BMP180;55725;42.758;26.702;2023-02-28T07:45:09;100208.00;;;8.30
68743;BMP180;55725;42.758;26.702;2023-02-28T07:46:51;100200.00;;;8.00
68743;BMP180;55725;42.758;26.702;2023-02-28T07:48:32;100209.00;;;7.90
68743;BMP180;55725;42.758;26.702;2023-02-28T07:50:14;100211.00;;;7.80
68743;BMP180;55725;42.758;26.702;2023-02-28T07:51:54;100209.00;;;8.10
68743;BMP180;55725;42.758;26.702;2023-02-28T07:53:35;100220.00;;;8.00
68743;BMP180;55725;42.758;26.702;2023-02-28T07:55:15;100216.00;;;8.20
68743;BMP180;55725;42.758;26.702;2023-02-28T07:56:56;100211.00;;;8.10
68743;BMP180;55725;42.758;26.702;2023-02-28T07:58:37;100212.00;;;8.00
68743;BMP180;55725;42.758;26.702;2023-02-28T08:00:17;100221.00;;;8.20
68743;BMP180;55725;42.758;26.702;2023-02-28T08:01:57;100221.00;;;8.20
68743;BMP180;55725;42.758;26.702;2023-02-28T08:03:39;100212.00;;;8.20
68743;BMP180;55725;42.758;26.702;2023-02-28T08:05:19;100219.00;;;8.20
68743;BMP180;55725;42.758;26.702;2023-02-28T08:07:00;100218.00;;;8.00
68743;BMP180;55725;42.758;26.702;2023-02-28T08:08:40;100221.00;;;8.20
68743;BMP180;55725;42.758;26.702;2023-02-28T08:10:20;100218.00;;;8.00
68743;BMP180;55725;42.758;26.702;2023-02-28T08:12:01;100218.00;;;8.20
68743;BMP180;55725;42.758;26.702;2023-02-28T08:13:41;100205.00;;;8.30
68743;BMP180;55725;42.758;26.702;2023-02-28T08:15:23;100215.00;;;8.30
68743;BMP180;55725;42.758;26.702;2023-02-28T08:17:04;100214.00;;;8.50
68743;BMP180;55725;42.758;26.702;2023-02-28T08:18:44;100205.00;;;8.40
68743;BMP180;55725;42.758;26.702;2023-02-28T08:20:25;100216.00;;;8.50
68743;BMP180;55725;42.758;26.702;2023-02-28T08:22:05;100208.00;;;8.40
68743;BMP180;55725;42.758;26.702;2023-02-28T08:23:46;100216.00;;;8.40
68743;BMP180;55725;42.758;26.702;2023-02-28T08:25:27;100216.00;;;8.40
68743;BMP180;55725;42.758;26.702;2023-02-28T08:27:07;100219.00;;;8.20
68743;BMP180;55725;42.758;26.702;2023-02-28T08:28:47;100221.00;;;8.20
68743;BMP180;55725;42.758;26.702;2023-02-28T08:30:28;100217.00;;;8.30
68743;BMP180;55725;42.758;26.702;2023-02-28T08:32:08;100212.00;;;8.80
68743;BMP180;55725;42.758;26.702;2023-02-28T08:33:48;100216.00;;;8.70
68743;BMP180;55725;42.758;26.702;2023-02-28T08:35:31;100221.00;;;8.60
68743;BMP180;55725;42.758;26.702;2023-02-28T08:37:11;100221.00;;;8.70
68743;BMP180;55725;42.758;26.702;2023-02-28T08:38:51;100200.00;;;8.60
68743;BMP180;55725;42.758;26.702;2023-02-28T08:40:31;100206.00;;;8.60
68743;BMP180;55725;42.758;26.702;2023-02-28T08:42:12;100197.00;;;8.40
68743;BMP180;55725;42.758;26.702;2023-02-28T08:43:52;100201.00;;;8.50
68743;BMP180;55725;42.758;26.702;2023-02-28T08:45:33;100207.00;;;8.20
68743;BMP180;55725;42.758;26.702;2023-02-28T08:47:13;100213.00;;;8.30
68743;BMP180;55725;42.758;26.702;2023-02-28T08:48:55;100208.00;;;8.40
68743;BMP180;55725;42.758;26.702;2023-02-28T08:50:35;100203.00;;;8.60
68743;BMP180;55725;42.758;26.702;2023-02-28T08:52:16;100209.00;;;8.60
68743;BMP180;55725;42.758;26.702;2023-02-28T08:53:58;100196.00;;;8.70
68743;BMP180;55725;42.758;26.702;2023-02-28T08:55:39;100209.00;;;8.90
68743;BMP180;55725;42.758;26.702;2023-02-28T08:57:20;100202.00;;;8.60
68743;BMP180;55725;42.758;26.702;2023-02-28T08:59:00;100210.00;;;8.70
68743;BMP180;55725;42.758;26.702;2023-02-28T09:00:40;100213.00;;;8.50
68743;BMP180;55725;42.758;26.702;2023-02-28T09:02:20;100218.00;;;8.60
68743;BMP180;55725;42.758;26.702;2023-02-28T09:04:01;100229.00;;;8.50
68743;BMP180;55725;42.758;26.702;2023-02-28T09:05:51;100231.00;;;8.60
68743;BMP180;55725;42.758;26.702;2023-02-28T09:07:31;100227.00;;;8.80
68743;BMP180;55725;42.758;26.702;2023-02-28T09:09:12;100237.00;;;8.40
68743;BMP180;55725;42.758;26.702;2023-02-28T09:10:52;100229.00;;;8.30
68743;BMP180;55725;42.758;26.702;2023-02-28T09:12:33;100236.00;;;8.20
68743;BMP180;55725;42.758;26.702;2023-02-28T09:14:14;100230.00;;;8.20
68743;BMP180;55725;42.758;26.702;2023-02-28T09:15:57;100228.00;;;8.70
68743;BMP180;55725;42.758;26.702;2023-02-28T09:17:38;100221.00;;;8.50
68743;BMP180;55725;42.758;26.702;2023-02-28T09:19:18;100226.00;;;8.60
68743;BMP180;55725;42.758;26.702;2023-02-28T09:20:58;100223.00;;;8.30
68743;BMP180;55725;42.758;26.702;2023-02-28T09:22:38;100223.00;;;8.60
68743;BMP180;55725;42.758;26.702;2023-02-28T09:24:19;100216.00;;;8.30
68743;BMP180;55725;42.758;26.702;2023-02-28T09:26:00;100223.00;;;8.40
68743;BMP180;55725;42.758;26.702;2023-02-28T09:27:40;100221.00;;;8.40
68743;BMP180;55725;42.758;26.702;2023-02-28T09:29:21;100226.00;;;8.60
68743;BMP180;55725;42.758;26.702;2023-02-28T09:31:01;100223.00;;;8.40
68743;BMP180;55725;42.758;26.702;2023-02-28T09:32:42;100223.00;;;8.30
68743;BMP180;55725;42.758;26.702;2023-02-28T09:34:22;100231.00;;;8.40
68743;BMP180;55725;42.758;26.702;2023-02-28T09:36:03;100235.00;;;8.40
68743;BMP180;55725;42.758;26.702;2023-02-28T09:37:44;100228.00;;;8.50
68743;BMP180;55725;42.758;26.702;2023-02-28T09:39:24;100223.00;;;8.60
68743;BMP180;55725;42.758;26.702;2023-02-28T09:41:11;100229.00;;;8.40
68743;BMP180;55725;42.758;26.702;2023-02-28T09:42:53;100223.00;;;8.20
68743;BMP180;55725;42.758;26.702;2023-02-28T09:44:35;100218.00;;;8.40
68743;BMP180;55725;42.758;26.702;2023-02-28T09:46:37;100217.00;;;8.40
68743;BMP180;55725;42.758;26.702;2023-02-28T09:48:21;100218.00;;;8.60
68743;BMP180;55725;42.758;26.702;2023-02-28T09:51:58;100214.00;;;8.30
68743;BMP180;55725;42.758;26.702;2023-02-28T09:53:39;100212.00;;;8.40
68743;BMP180;55725;42.758;26.702;2023-02-28T09:55:22;100212.00;;;8.30
68743;BMP180;55725;42.758;26.702;2023-02-28T09:57:11;100214.00;;;8.30
68743;BMP180;55725;42.758;26.702;2023-02-28T09:58:58;100214.00;;;8.20
68743;BMP180;55725;42.758;26.702;2023-02-28T10:00:40;100212.00;;;8.50
68743;BMP180;55725;42.758;26.702;2023-02-28T10:05:59;100211.00;;;8.60
68743;BMP180;55725;42.758;26.702;2023-02-28T10:08:03;100218.00;;;8.70
68743;BMP180;55725;42.758;26.702;2023-02-28T10:09:46;100215.00;;;8.40
68743;BMP180;55725;42.758;26.702;2023-02-28T10:11:28;100218.00;;;8.10
68743;BMP180;55725;42.758;26.702;2023-02-28T10:13:14;100218.00;;;8.20
68743;BMP180;55725;42.758;26.702;2023-02-28T10:14:56;100222.00;;;8.30
68743;BMP180;55725;42.758;26.702;2023-02-28T10:17:00;100209.00;;;8.30
68743;BMP180;55725;42.758;26.702;2023-02-28T10:20:35;100210.00;;;8.30
68743;BMP180;55725;42.758;26.702;2023-02-28T10:26:00;100197.00;;;8.30
68743;BMP180;55725;42.758;26.702;2023-02-28T10:27:40;100183.00;;;8.40